sensor_id;sensor_type;location;lat;lon;timestamp;P1;durP1;ratioP1;P2;durP2;ratioP2
60086;SDS011;45960;53.630;55.972;2022-07-21T00:00:17;5.68;;;3.08;;
60086;SDS011;45960;53.630;55.972;2022-07-21T00:01:19;7.80;;;2.65;;
60086;SDS011;45960;53.630;55.972;2022-07-21T00:02:20;7.70;;;2.60;;
60086;SDS011;45960;53.630;55.972;2022-07-21T00:03:22;8.23;;;2.67;;
60086;SDS011;45960;53.630;55.972;2022-07-21T00:04:23;4.45;;;3.20;;
60086;SDS011;45960;53.630;55.972;2022-07-21T00:05:24;7.68;;;2.80;;
60086;SDS011;45960;53.630;55.972;2022-07-21T00:06:27;7.75;;;2.90;;
60086;SDS011;45960;53.630;55.972;2022-07-21T00:07:28;5.32;;;2.50;;
60086;SDS011;45960;53.630;55.972;2022-07-21T00:08:29;10.43;;;3.00;;
60086;SDS011;45960;53.630;55.972;2022-07-21T00:09:30;5.07;;;2.47;;
60086;SDS011;45960;53.630;55.972;2022-07-21T00:10:32;5.28;;;2.65;;
60086;SDS011;45960;53.630;55.972;2022-07-21T00:11:33;5.78;;;2.28;;
60086;SDS011;45960;53.630;55.972;2022-07-21T00:12:34;6.55;;;2.50;;
60086;SDS011;45960;53.630;55.972;2022-07-21T00:13:36;7.78;;;2.30;;
60086;SDS011;45960;53.630;55.972;2022-07-21T00:14:37;11.68;;;2.53;;
60086;SDS011;45960;53.630;55.972;2022-07-21T00:15:38;9.65;;;2.65;;
60086;SDS011;45960;53.630;55.972;2022-07-21T00:16:40;5.57;;;2.75;;
60086;SDS011;45960;53.630;55.972;2022-07-21T00:17:42;4.75;;;2.70;;
60086;SDS011;45960;53.630;55.972;2022-07-21T00:18:44;4.72;;;2.53;;
60086;SDS011;45960;53.630;55.972;2022-07-21T00:19:45;4.30;;;2.45;;
60086;SDS011;45960;53.630;55.972;2022-07-21T00:20:46;8.18;;;3.22;;
60086;SDS011;45960;53.630;55.972;2022-07-21T00:21:49;6.47;;;2.63;;
60086;SDS011;45960;53.630;55.972;2022-07-21T00:22:50;4.35;;;2.13;;
60086;SDS011;45960;53.630;55.972;2022-07-21T00:23:51;8.88;;;2.60;;
60086;SDS011;45960;53.630;55.972;2022-07-21T00:24:53;7.20;;;2.38;;
60086;SDS011;45960;53.630;55.972;2022-07-21T00:25:54;4.40;;;2.28;;
60086;SDS011;45960;53.630;55.972;2022-07-21T00:26:55;6.68;;;2.83;;
60086;SDS011;45960;53.630;55.972;2022-07-21T00:27:57;5.63;;;2.58;;
60086;SDS011;45960;53.630;55.972;2022-07-21T00:28:58;4.95;;;2.70;;
60086;SDS011;45960;53.630;55.972;2022-07-21T00:29:59;8.43;;;2.63;;
60086;SDS011;45960;53.630;55.972;2022-07-21T00:31:03;6.80;;;2.13;;
60086;SDS011;45960;53.630;55.972;2022-07-21T00:32:05;6.63;;;3.38;;
60086;SDS011;45960;53.630;55.972;2022-07-21T00:33:06;8.32;;;2.33;;
60086;SDS011;45960;53.630;55.972;2022-07-21T00:34:07;5.50;;;2.50;;
60086;SDS011;45960;53.630;55.972;2022-07-21T00:35:09;10.73;;;2.70;;
60086;SDS011;45960;53.630;55.972;2022-07-21T00:36:11;8.63;;;2.40;;
60086;SDS011;45960;53.630;55.972;2022-07-21T00:37:13;7.25;;;2.40;;
60086;SDS011;45960;53.630;55.972;2022-07-21T00:38:14;9.15;;;2.13;;
60086;SDS011;45960;53.630;55.972;2022-07-21T00:39:15;5.03;;;2.50;;
60086;SDS011;45960;53.630;55.972;2022-07-21T00:40:16;3.70;;;1.92;;
60086;SDS011;45960;53.630;55.972;2022-07-21T00:41:17;8.98;;;2.47;;
60086;SDS011;45960;53.630;55.972;2022-07-21T00:42:20;5.05;;;2.38;;
60086;SDS011;45960;53.630;55.972;2022-07-21T00:43:23;5.40;;;2.45;;
60086;SDS011;45960;53.630;55.972;2022-07-21T00:44:25;9.50;;;2.67;;
60086;SDS011;45960;53.630;55.972;2022-07-21T00:45:27;4.72;;;2.25;;
60086;SDS011;45960;53.630;55.972;2022-07-21T00:46:28;7.32;;;3.38;;
60086;SDS011;45960;53.630;55.972;2022-07-21T00:47:31;4.85;;;2.30;;
60086;SDS011;45960;53.630;55.972;2022-07-21T00:48:32;7.40;;;2.42;;
60086;SDS011;45960;53.630;55.972;2022-07-21T00:49:34;4.85;;;2.00;;
60086;SDS011;45960;53.630;55.972;2022-07-21T00:50:35;10.30;;;2.95;;
60086;SDS011;45960;53.630;55.972;2022-07-21T00:51:36;4.82;;;2.60;;
60086;SDS011;45960;53.630;55.972;2022-07-21T00:52:38;13.23;;;2.70;;
60086;SDS011;45960;53.630;55.972;2022-07-21T00:53:39;12.45;;;2.53;;
60086;SDS011;45960;53.630;55.972;2022-07-21T00:54:41;4.60;;;2.53;;
60086;SDS011;45960;53.630;55.972;2022-07-21T00:55:43;7.80;;;2.50;;
60086;SDS011;45960;53.630;55.972;2022-07-21T00:56:45;9.52;;;3.30;;
60086;SDS011;45960;53.630;55.972;2022-07-21T00:57:47;6.18;;;2.60;;
60086;SDS011;45960;53.630;55.972;2022-07-21T00:58:50;8.77;;;2.83;;
60086;SDS011;45960;53.630;55.972;2022-07-21T00:59:51;5.75;;;2.60;;
60086;SDS011;45960;53.630;55.972;2022-07-21T01:00:52;5.20;;;2.40;;
60086;SDS011;45960;53.630;55.972;2022-07-21T01:01:54;11.57;;;2.90;;
60086;SDS011;45960;53.630;55.972;2022-07-21T01:02:56;10.27;;;3.00;;
60086;SDS011;45960;53.630;55.972;2022-07-21T01:03:58;12.10;;;2.30;;
60086;SDS011;45960;53.630;55.972;2022-07-21T01:04:59;7.40;;;2.40;;
60086;SDS011;45960;53.630;55.972;2022-07-21T01:06:00;8.05;;;2.40;;
60086;SDS011;45960;53.630;55.972;2022-07-21T01:07:03;8.80;;;2.30;;
60086;SDS011;45960;53.630;55.972;2022-07-21T01:08:06;6.90;;;2.58;;
60086;SDS011;45960;53.630;55.972;2022-07-21T01:09:07;7.63;;;2.45;;
60086;SDS011;45960;53.630;55.972;2022-07-21T01:10:09;6.32;;;2.58;;
60086;SDS011;45960;53.630;55.972;2022-07-21T01:11:12;7.13;;;2.83;;
60086;SDS011;45960;53.630;55.972;2022-07-21T01:12:13;5.38;;;2.60;;
60086;SDS011;45960;53.630;55.972;2022-07-21T01:13:14;9.38;;;2.75;;
60086;SDS011;45960;53.630;55.972;2022-07-21T01:14:15;8.50;;;2.92;;
60086;SDS011;45960;53.630;55.972;2022-07-21T01:15:18;8.85;;;2.90;;
60086;SDS011;45960;53.630;55.972;2022-07-21T01:16:20;4.78;;;2.55;;
60086;SDS011;45960;53.630;55.972;2022-07-21T01:17:22;9.73;;;2.88;;
60086;SDS011;45960;53.630;55.972;2022-07-21T01:18:23;10.57;;;2.90;;
60086;SDS011;45960;53.630;55.972;2022-07-21T01:19:25;8.15;;;2.47;;
60086;SDS011;45960;53.630;55.972;2022-07-21T01:20:26;4.35;;;2.90;;
60086;SDS011;45960;53.630;55.972;2022-07-21T01:21:34;11.55;;;2.67;;
60086;SDS011;45960;53.630;55.972;2022-07-21T01:22:41;6.40;;;3.88;;
60086;SDS011;45960;53.630;55.972;2022-07-21T01:23:44;11.23;;;3.03;;
60086;SDS011;45960;53.630;55.972;2022-07-21T01:24:45;9.48;;;2.60;;
60086;SDS011;45960;53.630;55.972;2022-07-21T01:25:50;7.93;;;3.30;;
60086;SDS011;45960;53.630;55.972;2022-07-21T01:26:52;8.10;;;2.80;;
60086;SDS011;45960;53.630;55.972;2022-07-21T01:27:53;6.15;;;2.75;;
60086;SDS011;45960;53.630;55.972;2022-07-21T01:28:55;5.85;;;3.05;;
60086;SDS011;45960;53.630;55.972;2022-07-21T01:29:57;5.70;;;3.10;;
60086;SDS011;45960;53.630;55.972;2022-07-21T01:30:59;7.47;;;3.50;;
60086;SDS011;45960;53.630;55.972;2022-07-21T01:32:02;6.43;;;2.50;;
60086;SDS011;45960;53.630;55.972;2022-07-21T01:33:04;8.50;;;3.30;;
60086;SDS011;45960;53.630;55.972;2022-07-21T01:34:06;7.82;;;3.30;;
60086;SDS011;45960;53.630;55.972;2022-07-21T01:35:09;10.57;;;3.55;;
60086;SDS011;45960;53.630;55.972;2022-07-21T01:36:13;8.10;;;3.30;;
60086;SDS011;45960;53.630;55.972;2022-07-21T01:37:14;6.65;;;3.13;;
60086;SDS011;45960;53.630;55.972;2022-07-21T01:38:15;7.40;;;3.20;;
60086;SDS011;45960;53.630;55.972;2022-07-21T01:39:35;4.80;;;2.80;;
60086;SDS011;45960;53.630;55.972;2022-07-21T01:40:57;5.85;;;2.90;;
60086;SDS011;45960;53.630;55.972;2022-07-21T01:42:17;7.72;;;2.95;;
60086;SDS011;45960;53.630;55.972;2022-07-21T01:43:19;8.85;;;2.78;;
60086;SDS011;45960;53.630;55.972;2022-07-21T01:44:20;5.65;;;2.97;;
60086;SDS011;45960;53.630;55.972;2022-07-21T01:45:22;7.68;;;2.83;;
60086;SDS011;45960;53.630;55.972;2022-07-21T01:46:24;11.95;;;3.08;;
60086;SDS011;45960;53.630;55.972;2022-07-21T01:47:27;13.73;;;3.97;;
60086;SDS011;45960;53.630;55.972;2022-07-21T01:48:28;7.30;;;3.10;;
60086;SDS011;45960;53.630;55.972;2022-07-21T01:49:29;8.80;;;2.85;;
60086;SDS011;45960;53.630;55.972;2022-07-21T01:50:30;8.43;;;3.70;;
60086;SDS011;45960;53.630;55.972;2022-07-21T01:51:32;6.80;;;3.13;;
60086;SDS011;45960;53.630;55.972;2022-07-21T01:52:34;10.10;;;3.17;;
60086;SDS011;45960;53.630;55.972;2022-07-21T01:53:35;16.40;;;3.72;;
60086;SDS011;45960;53.630;55.972;2022-07-21T01:54:37;11.23;;;3.47;;
60086;SDS011;45960;53.630;55.972;2022-07-21T01:55:38;11.95;;;3.22;;
60086;SDS011;45960;53.630;55.972;2022-07-21T01:56:40;11.90;;;3.67;;
60086;SDS011;45960;53.630;55.972;2022-07-21T01:57:41;9.85;;;3.70;;
60086;SDS011;45960;53.630;55.972;2022-07-21T01:58:43;10.68;;;3.83;;
60086;SDS011;45960;53.630;55.972;2022-07-21T01:59:44;9.98;;;3.72;;
60086;SDS011;45960;53.630;55.972;2022-07-21T02:00:45;14.90;;;4.05;;
60086;SDS011;45960;53.630;55.972;2022-07-21T02:01:46;17.00;;;4.30;;
60086;SDS011;45960;53.630;55.972;2022-07-21T02:02:47;14.23;;;3.97;;
60086;SDS011;45960;53.630;55.972;2022-07-21T02:03:49;12.30;;;4.25;;
60086;SDS011;45960;53.630;55.972;2022-07-21T02:04:50;14.60;;;4.28;;
60086;SDS011;45960;53.630;55.972;2022-07-21T02:05:51;12.75;;;3.90;;
60086;SDS011;45960;53.630;55.972;2022-07-21T02:06:53;31.95;;;4.63;;
60086;SDS011;45960;53.630;55.972;2022-07-21T02:07:55;12.15;;;4.07;;
60086;SDS011;45960;53.630;55.972;2022-07-21T02:08:56;19.17;;;4.45;;
60086;SDS011;45960;53.630;55.972;2022-07-21T02:09:57;19.92;;;4.38;;
60086;SDS011;45960;53.630;55.972;2022-07-21T02:10:58;16.85;;;4.75;;
60086;SDS011;45960;53.630;55.972;2022-07-21T02:12:00;18.45;;;4.55;;
60086;SDS011;45960;53.630;55.972;2022-07-21T02:13:01;13.02;;;3.88;;
60086;SDS011;45960;53.630;55.972;2022-07-21T02:14:04;12.75;;;4.15;;
60086;SDS011;45960;53.630;55.972;2022-07-21T02:15:05;19.33;;;4.40;;
60086;SDS011;45960;53.630;55.972;2022-07-21T02:16:07;8.98;;;3.75;;
60086;SDS011;45960;53.630;55.972;2022-07-21T02:17:09;16.77;;;3.95;;
60086;SDS011;45960;53.630;55.972;2022-07-21T02:18:10;14.65;;;4.07;;
60086;SDS011;45960;53.630;55.972;2022-07-21T02:19:11;14.00;;;4.78;;
60086;SDS011;45960;53.630;55.972;2022-07-21T02:20:13;19.42;;;4.55;;
60086;SDS011;45960;53.630;55.972;2022-07-21T02:21:14;15.00;;;4.10;;
60086;SDS011;45960;53.630;55.972;2022-07-21T02:22:15;12.77;;;3.22;;
60086;SDS011;45960;53.630;55.972;2022-07-21T02:23:17;29.00;;;4.40;;
60086;SDS011;45960;53.630;55.972;2022-07-21T02:24:18;27.02;;;4.40;;
60086;SDS011;45960;53.630;55.972;2022-07-21T02:25:19;21.10;;;4.85;;
60086;SDS011;45960;53.630;55.972;2022-07-21T02:26:21;14.13;;;3.53;;
60086;SDS011;45960;53.630;55.972;2022-07-21T02:27:22;11.68;;;3.78;;
60086;SDS011;45960;53.630;55.972;2022-07-21T02:28:23;13.00;;;4.20;;
60086;SDS011;45960;53.630;55.972;2022-07-21T02:29:25;18.02;;;4.43;;
60086;SDS011;45960;53.630;55.972;2022-07-21T02:30:26;22.33;;;4.05;;
60086;SDS011;45960;53.630;55.972;2022-07-21T02:31:27;20.55;;;4.25;;
60086;SDS011;45960;53.630;55.972;2022-07-21T02:32:29;13.45;;;3.58;;
60086;SDS011;45960;53.630;55.972;2022-07-21T02:33:31;14.05;;;3.80;;
60086;SDS011;45960;53.630;55.972;2022-07-21T02:34:32;14.77;;;3.97;;
60086;SDS011;45960;53.630;55.972;2022-07-21T02:35:33;12.93;;;3.58;;
60086;SDS011;45960;53.630;55.972;2022-07-21T02:36:35;9.63;;;4.20;;
60086;SDS011;45960;53.630;55.972;2022-07-21T02:37:36;13.57;;;4.68;;
60086;SDS011;45960;53.630;55.972;2022-07-21T02:38:38;8.07;;;3.67;;
60086;SDS011;45960;53.630;55.972;2022-07-21T02:39:39;21.13;;;4.60;;
60086;SDS011;45960;53.630;55.972;2022-07-21T02:40:41;14.18;;;3.65;;
60086;SDS011;45960;53.630;55.972;2022-07-21T02:41:43;16.00;;;4.63;;
60086;SDS011;45960;53.630;55.972;2022-07-21T02:42:44;11.15;;;3.90;;
60086;SDS011;45960;53.630;55.972;2022-07-21T02:43:45;18.17;;;4.38;;
60086;SDS011;45960;53.630;55.972;2022-07-21T02:44:46;8.13;;;3.25;;
60086;SDS011;45960;53.630;55.972;2022-07-21T02:45:47;11.95;;;3.10;;
60086;SDS011;45960;53.630;55.972;2022-07-21T02:46:48;12.15;;;3.13;;
60086;SDS011;45960;53.630;55.972;2022-07-21T02:47:53;9.07;;;3.42;;
60086;SDS011;45960;53.630;55.972;2022-07-21T02:48:56;15.05;;;3.58;;
60086;SDS011;45960;53.630;55.972;2022-07-21T02:49:57;16.80;;;3.95;;
60086;SDS011;45960;53.630;55.972;2022-07-21T02:50:58;8.65;;;3.28;;
60086;SDS011;45960;53.630;55.972;2022-07-21T02:51:59;9.20;;;3.45;;
60086;SDS011;45960;53.630;55.972;2022-07-21T02:53:01;13.05;;;3.10;;
60086;SDS011;45960;53.630;55.972;2022-07-21T02:54:04;9.75;;;3.17;;
60086;SDS011;45960;53.630;55.972;2022-07-21T02:55:06;11.57;;;3.22;;
60086;SDS011;45960;53.630;55.972;2022-07-21T02:56:07;12.68;;;3.90;;
60086;SDS011;45960;53.630;55.972;2022-07-21T02:57:08;10.82;;;3.13;;
60086;SDS011;45960;53.630;55.972;2022-07-21T02:58:14;14.00;;;3.10;;
60086;SDS011;45960;53.630;55.972;2022-07-21T02:59:17;20.85;;;4.28;;
60086;SDS011;45960;53.630;55.972;2022-07-21T03:00:19;13.05;;;3.55;;
60086;SDS011;45960;53.630;55.972;2022-07-21T03:01:20;11.07;;;3.35;;
60086;SDS011;45960;53.630;55.972;2022-07-21T03:02:21;17.23;;;3.55;;
60086;SDS011;45960;53.630;55.972;2022-07-21T03:03:24;10.38;;;3.47;;
60086;SDS011;45960;53.630;55.972;2022-07-21T03:04:27;12.00;;;3.10;;
60086;SDS011;45960;53.630;55.972;2022-07-21T03:05:28;7.40;;;3.55;;
60086;SDS011;45960;53.630;55.972;2022-07-21T03:06:30;11.15;;;2.80;;
60086;SDS011;45960;53.630;55.972;2022-07-21T03:07:31;10.75;;;3.28;;
60086;SDS011;45960;53.630;55.972;2022-07-21T03:08:32;9.02;;;3.13;;
60086;SDS011;45960;53.630;55.972;2022-07-21T03:09:34;6.38;;;2.72;;
60086;SDS011;45960;53.630;55.972;2022-07-21T03:10:35;7.70;;;2.88;;
60086;SDS011;45960;53.630;55.972;2022-07-21T03:11:37;10.43;;;2.90;;
60086;SDS011;45960;53.630;55.972;2022-07-21T03:12:38;8.40;;;2.92;;
60086;SDS011;45960;53.630;55.972;2022-07-21T03:13:39;11.48;;;3.08;;
60086;SDS011;45960;53.630;55.972;2022-07-21T03:14:40;12.77;;;3.22;;
60086;SDS011;45960;53.630;55.972;2022-07-21T03:15:42;7.75;;;3.05;;
60086;SDS011;45960;53.630;55.972;2022-07-21T03:16:43;5.68;;;2.80;;
60086;SDS011;45960;53.630;55.972;2022-07-21T03:17:44;9.43;;;2.50;;
60086;SDS011;45960;53.630;55.972;2022-07-21T03:18:47;4.53;;;2.20;;
60086;SDS011;45960;53.630;55.972;2022-07-21T03:19:48;5.45;;;2.28;;
60086;SDS011;45960;53.630;55.972;2022-07-21T03:20:49;7.22;;;2.28;;
60086;SDS011;45960;53.630;55.972;2022-07-21T03:21:50;5.60;;;1.90;;
60086;SDS011;45960;53.630;55.972;2022-07-21T03:22:51;6.13;;;2.20;;
60086;SDS011;45960;53.630;55.972;2022-07-21T03:23:52;8.95;;;2.00;;
60086;SDS011;45960;53.630;55.972;2022-07-21T03:24:53;4.82;;;1.63;;
60086;SDS011;45960;53.630;55.972;2022-07-21T03:25:54;5.82;;;1.70;;
60086;SDS011;45960;53.630;55.972;2022-07-21T03:26:56;7.10;;;2.00;;
60086;SDS011;45960;53.630;55.972;2022-07-21T03:27:58;4.05;;;2.13;;
60086;SDS011;45960;53.630;55.972;2022-07-21T03:28:59;9.63;;;2.22;;
60086;SDS011;45960;53.630;55.972;2022-07-21T03:30:00;7.03;;;1.88;;
60086;SDS011;45960;53.630;55.972;2022-07-21T03:31:01;6.38;;;1.73;;
60086;SDS011;45960;53.630;55.972;2022-07-21T03:32:02;7.53;;;2.08;;
60086;SDS011;45960;53.630;55.972;2022-07-21T03:33:04;12.27;;;2.00;;
60086;SDS011;45960;53.630;55.972;2022-07-21T03:34:05;6.97;;;1.83;;
60086;SDS011;45960;53.630;55.972;2022-07-21T03:35:07;8.68;;;1.77;;
60086;SDS011;45960;53.630;55.972;2022-07-21T03:36:09;9.73;;;1.85;;
60086;SDS011;45960;53.630;55.972;2022-07-21T03:37:11;6.43;;;1.70;;
60086;SDS011;45960;53.630;55.972;2022-07-21T03:38:12;9.40;;;2.13;;
60086;SDS011;45960;53.630;55.972;2022-07-21T03:39:14;6.03;;;1.95;;
60086;SDS011;45960;53.630;55.972;2022-07-21T03:40:17;8.65;;;2.10;;
60086;SDS011;45960;53.630;55.972;2022-07-21T03:41:20;7.43;;;2.25;;
60086;SDS011;45960;53.630;55.972;2022-07-21T03:42:21;9.05;;;2.03;;
60086;SDS011;45960;53.630;55.972;2022-07-21T03:43:23;9.10;;;2.15;;
60086;SDS011;45960;53.630;55.972;2022-07-21T03:44:24;10.63;;;2.65;;
60086;SDS011;45960;53.630;55.972;2022-07-21T03:45:25;4.03;;;2.08;;
60086;SDS011;45960;53.630;55.972;2022-07-21T03:46:30;6.57;;;1.95;;
60086;SDS011;45960;53.630;55.972;2022-07-21T03:47:31;10.73;;;2.70;;
60086;SDS011;45960;53.630;55.972;2022-07-21T03:48:32;7.70;;;2.42;;
60086;SDS011;45960;53.630;55.972;2022-07-21T03:49:33;13.52;;;2.88;;
60086;SDS011;45960;53.630;55.972;2022-07-21T03:50:35;7.10;;;2.60;;
60086;SDS011;45960;53.630;55.972;2022-07-21T03:51:37;15.95;;;3.92;;
60086;SDS011;45960;53.630;55.972;2022-07-21T03:52:39;6.57;;;2.50;;
60086;SDS011;45960;53.630;55.972;2022-07-21T03:53:40;6.68;;;2.60;;
60086;SDS011;45960;53.630;55.972;2022-07-21T03:54:41;4.70;;;2.38;;
60086;SDS011;45960;53.630;55.972;2022-07-21T03:55:43;5.63;;;2.63;;
60086;SDS011;45960;53.630;55.972;2022-07-21T03:56:44;8.27;;;2.60;;
60086;SDS011;45960;53.630;55.972;2022-07-21T03:57:46;4.80;;;2.15;;
60086;SDS011;45960;53.630;55.972;2022-07-21T03:58:51;6.05;;;2.60;;
60086;SDS011;45960;53.630;55.972;2022-07-21T03:59:53;10.10;;;2.60;;
60086;SDS011;45960;53.630;55.972;2022-07-21T04:00:54;7.85;;;2.25;;
60086;SDS011;45960;53.630;55.972;2022-07-21T04:01:55;8.90;;;2.42;;
60086;SDS011;45960;53.630;55.972;2022-07-21T04:02:56;5.30;;;2.35;;
60086;SDS011;45960;53.630;55.972;2022-07-21T04:03:58;4.25;;;2.28;;
60086;SDS011;45960;53.630;55.972;2022-07-21T04:04:59;5.90;;;2.42;;
60086;SDS011;45960;53.630;55.972;2022-07-21T04:06:00;5.70;;;2.50;;
60086;SDS011;45960;53.630;55.972;2022-07-21T04:07:01;6.72;;;2.55;;
60086;SDS011;45960;53.630;55.972;2022-07-21T04:08:03;7.82;;;2.83;;
60086;SDS011;45960;53.630;55.972;2022-07-21T04:09:05;12.45;;;3.20;;
60086;SDS011;45960;53.630;55.972;2022-07-21T04:10:06;11.05;;;3.35;;
60086;SDS011;45960;53.630;55.972;2022-07-21T04:11:08;10.10;;;3.05;;
60086;SDS011;45960;53.630;55.972;2022-07-21T04:12:09;15.02;;;3.20;;
60086;SDS011;45960;53.630;55.972;2022-07-21T04:13:11;7.32;;;3.72;;
60086;SDS011;45960;53.630;55.972;2022-07-21T04:14:14;8.18;;;3.03;;
60086;SDS011;45960;53.630;55.972;2022-07-21T04:15:15;7.60;;;3.38;;
60086;SDS011;45960;53.630;55.972;2022-07-21T04:16:17;8.57;;;3.13;;
60086;SDS011;45960;53.630;55.972;2022-07-21T04:17:18;8.15;;;3.38;;
60086;SDS011;45960;53.630;55.972;2022-07-21T04:18:19;9.02;;;4.13;;
60086;SDS011;45960;53.630;55.972;2022-07-21T04:19:20;7.93;;;4.22;;
60086;SDS011;45960;53.630;55.972;2022-07-21T04:20:21;8.75;;;4.22;;
60086;SDS011;45960;53.630;55.972;2022-07-21T04:21:23;13.35;;;3.90;;
60086;SDS011;45960;53.630;55.972;2022-07-21T04:22:24;6.70;;;4.00;;
60086;SDS011;45960;53.630;55.972;2022-07-21T04:23:25;9.57;;;4.32;;
60086;SDS011;45960;53.630;55.972;2022-07-21T04:24:26;11.77;;;4.78;;
60086;SDS011;45960;53.630;55.972;2022-07-21T04:25:29;8.55;;;4.00;;
60086;SDS011;45960;53.630;55.972;2022-07-21T04:26:30;10.50;;;4.53;;
60086;SDS011;45960;53.630;55.972;2022-07-21T04:27:31;15.00;;;4.18;;
60086;SDS011;45960;53.630;55.972;2022-07-21T04:28:32;11.68;;;3.88;;
60086;SDS011;45960;53.630;55.972;2022-07-21T04:29:33;8.88;;;4.32;;
60086;SDS011;45960;53.630;55.972;2022-07-21T04:30:35;12.73;;;4.43;;
60086;SDS011;45960;53.630;55.972;2022-07-21T04:31:36;10.25;;;4.50;;
60086;SDS011;45960;53.630;55.972;2022-07-21T04:32:37;9.40;;;4.13;;
60086;SDS011;45960;53.630;55.972;2022-07-21T04:33:38;12.90;;;4.70;;
60086;SDS011;45960;53.630;55.972;2022-07-21T04:34:39;11.10;;;4.53;;
60086;SDS011;45960;53.630;55.972;2022-07-21T04:35:41;13.13;;;5.22;;
60086;SDS011;45960;53.630;55.972;2022-07-21T04:36:42;13.27;;;5.93;;
60086;SDS011;45960;53.630;55.972;2022-07-21T04:37:43;9.20;;;5.10;;
60086;SDS011;45960;53.630;55.972;2022-07-21T04:38:45;12.98;;;5.72;;
60086;SDS011;45960;53.630;55.972;2022-07-21T04:39:46;7.57;;;4.88;;
60086;SDS011;45960;53.630;55.972;2022-07-21T04:40:47;9.23;;;5.00;;
60086;SDS011;45960;53.630;55.972;2022-07-21T04:41:48;13.40;;;5.22;;
60086;SDS011;45960;53.630;55.972;2022-07-21T04:42:49;12.18;;;5.55;;
60086;SDS011;45960;53.630;55.972;2022-07-21T04:43:50;9.88;;;4.75;;
60086;SDS011;45960;53.630;55.972;2022-07-21T04:44:52;10.80;;;5.28;;
60086;SDS011;45960;53.630;55.972;2022-07-21T04:45:52;12.90;;;4.80;;
60086;SDS011;45960;53.630;55.972;2022-07-21T04:46:54;11.38;;;4.68;;
60086;SDS011;45960;53.630;55.972;2022-07-21T04:47:55;12.05;;;4.72;;
60086;SDS011;45960;53.630;55.972;2022-07-21T04:48:56;10.93;;;5.10;;
60086;SDS011;45960;53.630;55.972;2022-07-21T04:49:58;9.48;;;3.95;;
60086;SDS011;45960;53.630;55.972;2022-07-21T04:50:59;10.82;;;4.53;;
60086;SDS011;45960;53.630;55.972;2022-07-21T04:52:00;7.72;;;3.85;;
60086;SDS011;45960;53.630;55.972;2022-07-21T04:53:01;9.98;;;4.22;;
60086;SDS011;45960;53.630;55.972;2022-07-21T04:54:02;10.88;;;4.20;;
60086;SDS011;45960;53.630;55.972;2022-07-21T04:55:04;11.00;;;4.45;;
60086;SDS011;45960;53.630;55.972;2022-07-21T04:56:05;10.48;;;4.28;;
60086;SDS011;45960;53.630;55.972;2022-07-21T04:57:07;14.25;;;3.85;;
60086;SDS011;45960;53.630;55.972;2022-07-21T04:58:08;8.75;;;3.72;;
60086;SDS011;45960;53.630;55.972;2022-07-21T04:59:09;9.20;;;3.80;;
60086;SDS011;45960;53.630;55.972;2022-07-21T05:00:13;19.38;;;4.38;;
60086;SDS011;45960;53.630;55.972;2022-07-21T05:01:16;12.77;;;5.20;;
60086;SDS011;45960;53.630;55.972;2022-07-21T05:02:18;9.52;;;4.65;;
60086;SDS011;45960;53.630;55.972;2022-07-21T05:03:19;10.05;;;4.15;;
60086;SDS011;45960;53.630;55.972;2022-07-21T05:04:20;13.02;;;4.00;;
60086;SDS011;45960;53.630;55.972;2022-07-21T05:05:21;9.07;;;3.47;;
60086;SDS011;45960;53.630;55.972;2022-07-21T05:06:24;5.90;;;2.92;;
60086;SDS011;45960;53.630;55.972;2022-07-21T05:07:25;9.95;;;3.97;;
60086;SDS011;45960;53.630;55.972;2022-07-21T05:08:26;8.18;;;3.30;;
60086;SDS011;45960;53.630;55.972;2022-07-21T05:09:28;6.03;;;2.95;;
60086;SDS011;45960;53.630;55.972;2022-07-21T05:10:29;11.25;;;3.40;;
60086;SDS011;45960;53.630;55.972;2022-07-21T05:11:30;10.52;;;3.03;;
60086;SDS011;45960;53.630;55.972;2022-07-21T05:12:31;16.92;;;2.90;;
60086;SDS011;45960;53.630;55.972;2022-07-21T05:13:33;16.27;;;3.10;;
60086;SDS011;45960;53.630;55.972;2022-07-21T05:14:34;6.72;;;2.53;;
60086;SDS011;45960;53.630;55.972;2022-07-21T05:15:35;6.65;;;2.35;;
60086;SDS011;45960;53.630;55.972;2022-07-21T05:16:36;10.05;;;2.10;;
60086;SDS011;45960;53.630;55.972;2022-07-21T05:17:37;6.57;;;2.47;;
60086;SDS011;45960;53.630;55.972;2022-07-21T05:18:38;9.23;;;2.47;;
60086;SDS011;45960;53.630;55.972;2022-07-21T05:19:39;6.18;;;2.20;;
60086;SDS011;45960;53.630;55.972;2022-07-21T05:20:43;8.98;;;2.55;;
60086;SDS011;45960;53.630;55.972;2022-07-21T05:21:44;6.68;;;2.20;;
60086;SDS011;45960;53.630;55.972;2022-07-21T05:22:45;7.97;;;2.80;;
60086;SDS011;45960;53.630;55.972;2022-07-21T05:23:46;11.48;;;3.00;;
60086;SDS011;45960;53.630;55.972;2022-07-21T05:24:48;11.95;;;2.78;;
60086;SDS011;45960;53.630;55.972;2022-07-21T05:25:49;8.23;;;2.45;;
60086;SDS011;45960;53.630;55.972;2022-07-21T05:26:50;17.83;;;2.70;;
60086;SDS011;45960;53.630;55.972;2022-07-21T05:27:51;8.90;;;2.20;;
60086;SDS011;45960;53.630;55.972;2022-07-21T05:28:52;14.73;;;2.10;;
60086;SDS011;45960;53.630;55.972;2022-07-21T05:29:53;8.48;;;2.50;;
60086;SDS011;45960;53.630;55.972;2022-07-21T05:30:55;5.85;;;1.92;;
60086;SDS011;45960;53.630;55.972;2022-07-21T05:31:56;14.57;;;2.65;;
60086;SDS011;45960;53.630;55.972;2022-07-21T05:32:57;6.00;;;2.10;;
60086;SDS011;45960;53.630;55.972;2022-07-21T05:33:58;5.28;;;1.50;;
60086;SDS011;45960;53.630;55.972;2022-07-21T05:34:59;8.52;;;2.08;;
60086;SDS011;45960;53.630;55.972;2022-07-21T05:36:01;10.82;;;2.25;;
60086;SDS011;45960;53.630;55.972;2022-07-21T05:37:02;6.85;;;1.83;;
60086;SDS011;45960;53.630;55.972;2022-07-21T05:38:03;7.45;;;1.77;;
60086;SDS011;45960;53.630;55.972;2022-07-21T05:39:04;13.50;;;1.83;;
60086;SDS011;45960;53.630;55.972;2022-07-21T05:40:07;5.95;;;2.17;;
60086;SDS011;45960;53.630;55.972;2022-07-21T05:41:09;8.73;;;1.73;;
60086;SDS011;45960;53.630;55.972;2022-07-21T05:42:10;14.43;;;1.63;;
60086;SDS011;45960;53.630;55.972;2022-07-21T05:43:11;11.90;;;1.55;;
60086;SDS011;45960;53.630;55.972;2022-07-21T05:44:13;7.80;;;2.45;;
60086;SDS011;45960;53.630;55.972;2022-07-21T05:45:14;9.15;;;1.90;;
60086;SDS011;45960;53.630;55.972;2022-07-21T05:46:15;6.85;;;1.40;;
60086;SDS011;45960;53.630;55.972;2022-07-21T05:47:17;13.75;;;1.77;;
60086;SDS011;45960;53.630;55.972;2022-07-21T05:48:18;18.75;;;1.73;;
60086;SDS011;45960;53.630;55.972;2022-07-21T05:49:19;4.97;;;1.48;;
60086;SDS011;45960;53.630;55.972;2022-07-21T05:50:20;9.50;;;1.92;;
60086;SDS011;45960;53.630;55.972;2022-07-21T05:51:21;8.13;;;2.13;;
60086;SDS011;45960;53.630;55.972;2022-07-21T05:52:22;10.73;;;1.50;;
60086;SDS011;45960;53.630;55.972;2022-07-21T05:53:23;7.80;;;1.50;;
60086;SDS011;45960;53.630;55.972;2022-07-21T05:54:24;8.30;;;1.75;;
60086;SDS011;45960;53.630;55.972;2022-07-21T05:55:25;11.80;;;1.60;;
60086;SDS011;45960;53.630;55.972;2022-07-21T05:56:27;6.45;;;1.00;;
60086;SDS011;45960;53.630;55.972;2022-07-21T05:57:28;3.20;;;1.10;;
60086;SDS011;45960;53.630;55.972;2022-07-21T05:58:29;5.53;;;1.20;;
60086;SDS011;45960;53.630;55.972;2022-07-21T05:59:30;5.50;;;1.05;;
60086;SDS011;45960;53.630;55.972;2022-07-21T06:00:33;4.95;;;1.17;;
60086;SDS011;45960;53.630;55.972;2022-07-21T06:01:34;8.32;;;1.42;;
60086;SDS011;45960;53.630;55.972;2022-07-21T06:02:35;6.30;;;0.98;;
60086;SDS011;45960;53.630;55.972;2022-07-21T06:03:37;2.35;;;1.00;;